Terminal Aerodrome Forecast
Issued by NWS Los Angeles, CA

Home | Current Version | Previous Version | Text Only | Print | Product List | Glossary On
Versions: 1 2 3 4 5 6 7 8 9 10 11 12 13 14 15 16 17 18 19 20 21 22 23 24 25 26
000
FTUS46 KLOX 032340
TAFSMX
TAF
KSMX 032340Z 0400/0424 31017KT P6SM SKC
     FM040300 30008KT P6SM SKC
     FM040600 VRB03KT P6SM OVC010
     FM041800 28005KT P6SM SCT015
     FM042000 30012KT P6SM SKC
     FM042200 30015G20KT P6SM SKC=

USA.gov is the U.S. government's official web portal to all federal, state and local government web resources and services.